DAL4821 KLAX-PANC
Flight info
| Callsign | DAL4821 |
|---|---|
| Flight time | 4h 42m |
| Altitude | 40000 |
| Route | SUMMR2 SCTRR PYE J143 ENI FOT KYLLE B453 MDO YESKA6 |
| Aircraft | A359/H-SDE2E3GHIJ3J4J5LM1ORWXY/LB1D1 |
Departure
| Time | 2026-05-01 09:45 |
|---|---|
| Airport | Los Angeles International Airport (KLAX) |
Arrival
| Time | 2026-05-01 14:28 |
|---|---|
| Airport | Ted Stevens Anchorage International Airport (PANC) |
| Time | Latitude | Longitude | Altitude | Speed | Heading |
|---|---|---|---|---|---|
| 2026-05-01 09:12 | 33.94177 | -118.41092 | 140 ft | 0 kts | 83° |
| 2026-05-01 09:34 | 33.94173 | -118.41129 | 140 ft | 0 kts | 83° |
| 2026-05-01 09:35 | 33.94172 | -118.41164 | 140 ft | 0 kts | 95° |
| 2026-05-01 09:35 | 33.94180 | -118.41199 | 140 ft | 0 kts | 124° |
| 2026-05-01 09:35 | 33.94194 | -118.41215 | 140 ft | 0 kts | 164° |
| 2026-05-01 09:36 | 33.94199 | -118.41217 | 140 ft | 0 kts | 175° |
| 2026-05-01 09:37 | 33.94197 | -118.41218 | 140 ft | 4 kts | 171° |
| 2026-05-01 09:37 | 33.94122 | -118.41204 | 140 ft | 18 kts | 172° |
| 2026-05-01 09:38 | 33.93868 | -118.41163 | 140 ft | 16 kts | 173° |
| 2026-05-01 09:38 | 33.93778 | -118.41134 | 140 ft | 6 kts | 132° |
| 2026-05-01 09:38 | 33.93769 | -118.41075 | 140 ft | 7 kts | 85° |
| 2026-05-01 09:39 | 33.93782 | -118.40931 | 140 ft | 14 kts | 83° |
| 2026-05-01 09:39 | 33.93797 | -118.40796 | 140 ft | 19 kts | 83° |
| 2026-05-01 09:39 | 33.93810 | -118.40656 | 140 ft | 20 kts | 83° |
| 2026-05-01 09:40 | 33.93827 | -118.40492 | 140 ft | 21 kts | 83° |
| 2026-05-01 09:40 | 33.93865 | -118.40127 | 140 ft | 23 kts | 83° |
| 2026-05-01 09:40 | 33.93885 | -118.39932 | 140 ft | 23 kts | 83° |
| 2026-05-01 09:41 | 33.93908 | -118.39732 | 140 ft | 24 kts | 82° |
| 2026-05-01 09:41 | 33.93944 | -118.39314 | 140 ft | 25 kts | 83° |
| 2026-05-01 09:41 | 33.93965 | -118.39141 | 140 ft | 26 kts | 82° |
| 2026-05-01 09:42 | 33.93986 | -118.38962 | 140 ft | 26 kts | 82° |
| 2026-05-01 09:42 | 33.94004 | -118.38710 | 140 ft | 27 kts | 80° |
| 2026-05-01 09:42 | 33.94053 | -118.38280 | 140 ft | 23 kts | 83° |
| 2026-05-01 09:43 | 33.94033 | -118.37999 | 140 ft | 12 kts | 178° |
| 2026-05-01 09:43 | 33.93984 | -118.38046 | 140 ft | 9 kts | 255° |
| 2026-05-01 09:43 | 33.93975 | -118.38108 | 140 ft | 10 kts | 262° |
| 2026-05-01 09:44 | 33.93945 | -118.38406 | 140 ft | 60 kts | 263° |
| 2026-05-01 09:44 | 33.93882 | -118.39034 | 141 ft | 115 kts | 263° |
| 2026-05-01 09:44 | 33.93792 | -118.39915 | 142 ft | 157 kts | 263° |
| 2026-05-01 09:45 | 33.93671 | -118.41099 | 485 ft | 167 kts | 263° |
| 2026-05-01 09:45 | 33.93376 | -118.43793 | 1629 ft | 172 kts | 264° |
| 2026-05-01 09:45 | 33.93225 | -118.45240 | 2125 ft | 177 kts | 264° |
| 2026-05-01 09:46 | 33.93079 | -118.46765 | 2470 ft | 188 kts | 265° |
| 2026-05-01 09:46 | 33.92979 | -118.47971 | 2704 ft | 199 kts | 266° |
| 2026-05-01 09:46 | 33.92825 | -118.49893 | 3070 ft | 217 kts | 266° |
| 2026-05-01 09:46 | 33.92675 | -118.51753 | 3461 ft | 233 kts | 266° |
| 2026-05-01 09:47 | 33.92511 | -118.53767 | 3875 ft | 249 kts | 266° |
| 2026-05-01 09:47 | 33.92336 | -118.55896 | 4297 ft | 265 kts | 266° |
| 2026-05-01 09:47 | 33.92149 | -118.58161 | 4874 ft | 275 kts | 266° |
| 2026-05-01 09:47 | 33.91958 | -118.60456 | 5596 ft | 279 kts | 266° |
| 2026-05-01 09:48 | 33.91835 | -118.61979 | 6073 ft | 282 kts | 267° |
| 2026-05-01 09:48 | 33.91746 | -118.64376 | 6805 ft | 286 kts | 271° |
| 2026-05-01 09:48 | 33.91732 | -118.66760 | 7515 ft | 291 kts | 271° |
| 2026-05-01 09:48 | 33.92051 | -118.69167 | 8202 ft | 293 kts | 296° |
| 2026-05-01 09:49 | 33.93089 | -118.71222 | 8939 ft | 294 kts | 309° |
| 2026-05-01 09:49 | 33.94354 | -118.73169 | 9604 ft | 299 kts | 311° |
| 2026-05-01 09:49 | 33.95649 | -118.75135 | 10250 ft | 306 kts | 310° |
| 2026-05-01 09:49 | 33.96973 | -118.77213 | 10697 ft | 320 kts | 308° |
| 2026-05-01 09:50 | 33.98323 | -118.79411 | 11053 ft | 336 kts | 307° |
| 2026-05-01 09:50 | 33.99726 | -118.81750 | 11391 ft | 353 kts | 307° |
| 2026-05-01 09:50 | 34.01197 | -118.84241 | 11714 ft | 369 kts | 306° |
| 2026-05-01 09:50 | 34.02704 | -118.86813 | 12021 ft | 385 kts | 306° |
| 2026-05-01 09:51 | 34.04262 | -118.89481 | 12456 ft | 396 kts | 306° |
| 2026-05-01 09:51 | 34.05844 | -118.92198 | 13110 ft | 399 kts | 306° |
| 2026-05-01 09:51 | 34.07446 | -118.94950 | 13800 ft | 401 kts | 306° |
| 2026-05-01 09:51 | 34.09043 | -118.97698 | 14455 ft | 404 kts | 307° |
| 2026-05-01 09:52 | 34.10647 | -119.00458 | 15080 ft | 406 kts | 307° |
| 2026-05-01 09:52 | 34.12279 | -119.03252 | 15694 ft | 409 kts | 307° |
| 2026-05-01 09:52 | 34.13923 | -119.06068 | 16298 ft | 412 kts | 307° |
| 2026-05-01 09:52 | 34.15569 | -119.08895 | 16863 ft | 415 kts | 306° |
| 2026-05-01 09:53 | 34.17226 | -119.11749 | 17407 ft | 419 kts | 306° |
| 2026-05-01 09:53 | 34.18900 | -119.14638 | 17944 ft | 422 kts | 306° |
| 2026-05-01 09:53 | 34.20596 | -119.17570 | 18476 ft | 426 kts | 306° |
| 2026-05-01 09:53 | 34.22286 | -119.20496 | 18987 ft | 429 kts | 306° |
| 2026-05-01 09:54 | 34.24000 | -119.23466 | 19491 ft | 433 kts | 306° |
| 2026-05-01 09:54 | 34.25722 | -119.26454 | 19987 ft | 436 kts | 306° |
| 2026-05-01 09:54 | 34.27457 | -119.29466 | 20475 ft | 439 kts | 306° |
| 2026-05-01 09:54 | 34.29193 | -119.32484 | 20949 ft | 442 kts | 306° |
| 2026-05-01 09:55 | 34.30948 | -119.35538 | 21421 ft | 445 kts | 306° |
| 2026-05-01 09:55 | 34.32731 | -119.38644 | 21887 ft | 448 kts | 306° |
| 2026-05-01 09:55 | 34.34510 | -119.41747 | 22337 ft | 452 kts | 306° |
| 2026-05-01 09:55 | 34.36289 | -119.44851 | 22775 ft | 455 kts | 306° |
| 2026-05-01 09:56 | 34.38090 | -119.47993 | 23205 ft | 458 kts | 306° |
| 2026-05-01 09:56 | 34.39999 | -119.51084 | 23621 ft | 460 kts | 310° |
| 2026-05-01 09:56 | 34.42178 | -119.53974 | 24026 ft | 463 kts | 317° |
| 2026-05-01 09:56 | 34.44523 | -119.56517 | 24409 ft | 465 kts | 322° |
| 2026-05-01 09:57 | 34.47108 | -119.59000 | 24812 ft | 467 kts | 323° |
| 2026-05-01 09:57 | 34.49688 | -119.61404 | 25194 ft | 470 kts | 324° |
| 2026-05-01 09:57 | 34.52286 | -119.63820 | 25561 ft | 472 kts | 324° |
| 2026-05-01 09:57 | 34.54849 | -119.66216 | 25903 ft | 475 kts | 323° |
| 2026-05-01 09:58 | 34.57427 | -119.68651 | 26233 ft | 478 kts | 323° |
| 2026-05-01 09:58 | 34.60044 | -119.71130 | 26570 ft | 480 kts | 323° |
| 2026-05-01 09:58 | 34.62695 | -119.73646 | 26897 ft | 482 kts | 322° |
| 2026-05-01 09:58 | 34.65310 | -119.76127 | 27202 ft | 484 kts | 322° |
| 2026-05-01 09:59 | 34.67972 | -119.78653 | 27494 ft | 487 kts | 322° |
| 2026-05-01 09:59 | 34.70664 | -119.81208 | 27784 ft | 489 kts | 322° |
| 2026-05-01 09:59 | 34.73329 | -119.83737 | 28074 ft | 491 kts | 322° |
| 2026-05-01 09:59 | 34.75986 | -119.86262 | 28355 ft | 493 kts | 322° |
| 2026-05-01 10:00 | 34.78709 | -119.88852 | 28633 ft | 495 kts | 322° |
| 2026-05-01 10:00 | 34.81420 | -119.91431 | 28890 ft | 497 kts | 322° |
| 2026-05-01 10:00 | 34.84127 | -119.94009 | 29148 ft | 499 kts | 322° |
| 2026-05-01 10:00 | 34.86801 | -119.96558 | 29393 ft | 501 kts | 322° |
| 2026-05-01 10:01 | 34.89515 | -119.99149 | 29634 ft | 502 kts | 322° |
| 2026-05-01 10:01 | 34.92263 | -120.01775 | 29911 ft | 503 kts | 323° |
| 2026-05-01 10:01 | 34.94963 | -120.04359 | 30252 ft | 502 kts | 323° |
| 2026-05-01 10:01 | 34.97684 | -120.06966 | 30614 ft | 501 kts | 323° |
| 2026-05-01 10:02 | 35.00385 | -120.09553 | 30982 ft | 499 kts | 324° |
| 2026-05-01 10:02 | 35.03067 | -120.12123 | 31353 ft | 497 kts | 324° |
| 2026-05-01 10:02 | 35.05766 | -120.14710 | 31739 ft | 494 kts | 324° |
| 2026-05-01 10:02 | 35.08430 | -120.17261 | 32104 ft | 492 kts | 324° |
| 2026-05-01 10:03 | 35.11079 | -120.19798 | 32414 ft | 491 kts | 324° |
| 2026-05-01 10:03 | 35.13720 | -120.22321 | 32687 ft | 490 kts | 324° |
| 2026-05-01 10:03 | 35.16365 | -120.24854 | 32955 ft | 490 kts | 324° |
| 2026-05-01 10:03 | 35.19030 | -120.27374 | 33222 ft | 489 kts | 326° |
| 2026-05-01 10:04 | 35.21719 | -120.29836 | 33494 ft | 488 kts | 326° |
| 2026-05-01 10:04 | 35.24456 | -120.32321 | 33763 ft | 487 kts | 326° |
| 2026-05-01 10:04 | 35.27156 | -120.34773 | 34025 ft | 487 kts | 326° |
| 2026-05-01 10:04 | 35.29845 | -120.37222 | 34273 ft | 486 kts | 326° |
| 2026-05-01 10:05 | 35.32576 | -120.39719 | 34516 ft | 486 kts | 326° |
| 2026-05-01 10:05 | 35.35238 | -120.42156 | 34748 ft | 485 kts | 326° |
| 2026-05-01 10:05 | 35.37937 | -120.44634 | 34968 ft | 485 kts | 326° |
| 2026-05-01 10:05 | 35.40625 | -120.47105 | 35186 ft | 485 kts | 326° |
| 2026-05-01 10:06 | 35.43314 | -120.49578 | 35404 ft | 484 kts | 326° |
| 2026-05-01 10:06 | 35.46006 | -120.52059 | 35615 ft | 484 kts | 326° |
| 2026-05-01 10:06 | 35.48695 | -120.54537 | 35807 ft | 484 kts | 326° |
| 2026-05-01 10:06 | 35.51368 | -120.57002 | 36001 ft | 483 kts | 326° |
| 2026-05-01 10:07 | 35.54044 | -120.59438 | 36200 ft | 482 kts | 327° |
| 2026-05-01 10:07 | 35.56791 | -120.61822 | 36390 ft | 481 kts | 328° |
| 2026-05-01 10:07 | 35.59532 | -120.64163 | 36558 ft | 481 kts | 328° |
| 2026-05-01 10:07 | 35.62242 | -120.66478 | 36701 ft | 481 kts | 328° |
| 2026-05-01 10:08 | 35.67707 | -120.71193 | 36982 ft | 482 kts | 328° |
| 2026-05-01 10:08 | 35.70454 | -120.73568 | 37122 ft | 481 kts | 328° |
| 2026-05-01 10:08 | 35.73174 | -120.75922 | 37254 ft | 481 kts | 328° |
| 2026-05-01 10:09 | 35.75910 | -120.78291 | 37382 ft | 481 kts | 328° |
| 2026-05-01 10:09 | 35.78635 | -120.80651 | 37518 ft | 481 kts | 328° |
| 2026-05-01 10:09 | 35.81362 | -120.83014 | 37634 ft | 481 kts | 328° |
| 2026-05-01 10:09 | 35.84101 | -120.85389 | 37754 ft | 481 kts | 328° |
| 2026-05-01 10:10 | 35.86813 | -120.87743 | 37866 ft | 481 kts | 328° |
| 2026-05-01 10:10 | 35.89525 | -120.90097 | 37981 ft | 481 kts | 328° |
| 2026-05-01 10:10 | 35.95001 | -120.94861 | 38182 ft | 482 kts | 328° |
| 2026-05-01 10:11 | 36.00450 | -120.99609 | 38350 ft | 483 kts | 328° |
| 2026-05-01 10:11 | 36.05907 | -121.04376 | 38533 ft | 483 kts | 328° |
| 2026-05-01 10:12 | 36.10421 | -121.08321 | 38646 ft | 483 kts | 328° |
| 2026-05-01 10:12 | 36.16712 | -121.13805 | 38830 ft | 484 kts | 329° |
| 2026-05-01 10:13 | 36.19428 | -121.16179 | 38916 ft | 483 kts | 329° |
| 2026-05-01 10:13 | 36.24913 | -121.20984 | 39093 ft | 483 kts | 329° |
| 2026-05-01 10:14 | 36.30384 | -121.25789 | 39198 ft | 484 kts | 329° |
| 2026-05-01 10:14 | 36.33081 | -121.28162 | 39235 ft | 485 kts | 329° |
| 2026-05-01 10:14 | 36.38583 | -121.33012 | 39332 ft | 485 kts | 329° |
| 2026-05-01 10:15 | 36.44046 | -121.37838 | 39443 ft | 485 kts | 329° |
| 2026-05-01 10:15 | 36.49467 | -121.42636 | 39549 ft | 486 kts | 329° |
| 2026-05-01 10:16 | 36.54926 | -121.47474 | 39605 ft | 487 kts | 329° |
| 2026-05-01 10:17 | 36.63169 | -121.54798 | 39739 ft | 487 kts | 329° |
| 2026-05-01 10:17 | 36.71421 | -121.62151 | 39838 ft | 488 kts | 329° |
| 2026-05-01 10:18 | 36.79655 | -121.69530 | 39918 ft | 489 kts | 328° |
| 2026-05-01 10:19 | 36.85142 | -121.74468 | 39952 ft | 489 kts | 328° |
| 2026-05-01 10:19 | 36.90633 | -121.79402 | 40009 ft | 489 kts | 328° |
| 2026-05-01 10:20 | 36.98914 | -121.86848 | 40074 ft | 490 kts | 328° |
| 2026-05-01 10:20 | 37.04426 | -121.91813 | 40077 ft | 491 kts | 328° |
| 2026-05-01 10:21 | 37.12565 | -121.99156 | 40077 ft | 492 kts | 328° |
| 2026-05-01 10:22 | 37.20860 | -122.06635 | 40078 ft | 493 kts | 328° |
| 2026-05-01 10:23 | 37.29164 | -122.14169 | 40078 ft | 493 kts | 328° |
| 2026-05-01 10:23 | 37.37450 | -122.21713 | 40079 ft | 494 kts | 328° |
| 2026-05-01 10:24 | 37.48398 | -122.31716 | 40081 ft | 493 kts | 328° |
| 2026-05-01 10:25 | 37.59413 | -122.41814 | 40082 ft | 493 kts | 328° |
| 2026-05-01 10:26 | 37.64949 | -122.46905 | 40083 ft | 493 kts | 328° |
| 2026-05-01 10:27 | 37.75938 | -122.57040 | 40082 ft | 493 kts | 328° |
| 2026-05-01 10:28 | 37.84215 | -122.64696 | 40080 ft | 493 kts | 328° |
| 2026-05-01 10:28 | 37.92506 | -122.72424 | 40071 ft | 494 kts | 327° |
| 2026-05-01 10:29 | 38.00789 | -122.80108 | 40058 ft | 493 kts | 329° |
| 2026-05-01 10:30 | 38.12580 | -122.88479 | 40055 ft | 486 kts | 341° |
| 2026-05-01 10:31 | 38.25277 | -122.94023 | 40056 ft | 483 kts | 346° |
| 2026-05-01 10:32 | 38.34823 | -122.97937 | 40057 ft | 483 kts | 346° |
| 2026-05-01 10:33 | 38.47527 | -123.03207 | 40060 ft | 483 kts | 345° |
| 2026-05-01 10:34 | 38.57050 | -123.07177 | 40061 ft | 483 kts | 345° |
| 2026-05-01 10:34 | 38.63420 | -123.09835 | 40059 ft | 482 kts | 345° |
| 2026-05-01 10:35 | 38.72969 | -123.13834 | 40059 ft | 482 kts | 345° |
| 2026-05-01 10:35 | 38.79320 | -123.16500 | 40058 ft | 482 kts | 345° |
| 2026-05-01 10:36 | 38.88815 | -123.20494 | 40056 ft | 482 kts | 345° |
| 2026-05-01 10:37 | 38.95195 | -123.23177 | 40054 ft | 483 kts | 345° |
| 2026-05-01 10:37 | 39.04713 | -123.27277 | 40051 ft | 485 kts | 341° |
| 2026-05-01 10:38 | 39.10913 | -123.30659 | 40053 ft | 486 kts | 338° |
| 2026-05-01 10:38 | 39.17030 | -123.34212 | 40052 ft | 485 kts | 338° |
| 2026-05-01 10:39 | 39.23100 | -123.37750 | 40053 ft | 486 kts | 338° |
| 2026-05-01 10:39 | 39.29265 | -123.41342 | 40054 ft | 486 kts | 338° |
| 2026-05-01 10:40 | 39.35372 | -123.44905 | 40056 ft | 486 kts | 338° |
| 2026-05-01 10:40 | 39.41506 | -123.48489 | 40057 ft | 486 kts | 338° |
| 2026-05-01 10:41 | 39.47617 | -123.52066 | 40061 ft | 486 kts | 338° |
| 2026-05-01 10:42 | 39.56766 | -123.57436 | 40068 ft | 485 kts | 338° |
| 2026-05-01 10:42 | 39.62890 | -123.61038 | 40071 ft | 486 kts | 338° |
| 2026-05-01 10:43 | 39.69032 | -123.64658 | 40075 ft | 486 kts | 338° |
| 2026-05-01 10:43 | 39.75132 | -123.68285 | 40077 ft | 486 kts | 337° |
| 2026-05-01 10:44 | 39.79088 | -123.70641 | 40079 ft | 486 kts | 337° |
| 2026-05-01 10:44 | 39.87753 | -123.75794 | 40079 ft | 486 kts | 337° |
| 2026-05-01 10:45 | 39.93839 | -123.79411 | 40085 ft | 486 kts | 337° |
| 2026-05-01 10:45 | 39.99984 | -123.83070 | 40102 ft | 486 kts | 337° |
| 2026-05-01 10:46 | 40.06119 | -123.86728 | 40123 ft | 486 kts | 337° |
| 2026-05-01 10:46 | 40.12215 | -123.90368 | 40139 ft | 486 kts | 337° |
| 2026-05-01 10:47 | 40.18336 | -123.94017 | 40146 ft | 486 kts | 337° |
| 2026-05-01 10:47 | 40.24449 | -123.97677 | 40149 ft | 486 kts | 337° |
| 2026-05-01 10:48 | 40.30468 | -124.01293 | 40153 ft | 486 kts | 337° |
| 2026-05-01 10:48 | 40.36559 | -124.04961 | 40152 ft | 486 kts | 337° |
| 2026-05-01 10:49 | 40.42680 | -124.08656 | 40152 ft | 486 kts | 337° |
| 2026-05-01 10:49 | 40.48787 | -124.12350 | 40153 ft | 486 kts | 337° |
| 2026-05-01 10:50 | 40.54903 | -124.16056 | 40153 ft | 486 kts | 337° |
| 2026-05-01 10:50 | 40.60986 | -124.19750 | 40151 ft | 486 kts | 337° |
| 2026-05-01 10:51 | 40.67048 | -124.23628 | 40154 ft | 487 kts | 333° |
| 2026-05-01 10:51 | 40.72837 | -124.28186 | 40153 ft | 488 kts | 329° |
| 2026-05-01 10:52 | 40.78536 | -124.32954 | 40153 ft | 488 kts | 329° |
| 2026-05-01 10:52 | 40.84244 | -124.37742 | 40152 ft | 488 kts | 329° |
| 2026-05-01 10:53 | 40.89948 | -124.42521 | 40152 ft | 488 kts | 329° |
| 2026-05-01 10:53 | 40.95669 | -124.47318 | 40152 ft | 488 kts | 329° |
| 2026-05-01 10:54 | 41.01366 | -124.52100 | 40152 ft | 487 kts | 329° |
| 2026-05-01 10:54 | 41.07077 | -124.56901 | 40152 ft | 487 kts | 329° |
| 2026-05-01 10:55 | 41.12768 | -124.61691 | 40153 ft | 486 kts | 328° |
| 2026-05-01 10:55 | 41.18447 | -124.66473 | 40153 ft | 485 kts | 328° |
| 2026-05-01 10:56 | 41.24102 | -124.71284 | 40153 ft | 485 kts | 328° |
| 2026-05-01 10:56 | 41.29729 | -124.76075 | 40153 ft | 485 kts | 328° |
| 2026-05-01 10:57 | 41.35431 | -124.80930 | 40154 ft | 486 kts | 328° |
| 2026-05-01 10:57 | 41.41077 | -124.85747 | 40158 ft | 485 kts | 328° |
| 2026-05-01 10:58 | 41.46736 | -124.90582 | 40163 ft | 484 kts | 328° |
| 2026-05-01 10:58 | 41.52317 | -124.95360 | 40167 ft | 482 kts | 329° |
| 2026-05-01 10:59 | 41.57912 | -125.00156 | 40170 ft | 479 kts | 329° |
| 2026-05-01 10:59 | 41.63457 | -125.04918 | 40171 ft | 476 kts | 329° |
| 2026-05-01 11:00 | 41.68961 | -125.09654 | 40171 ft | 475 kts | 329° |
| 2026-05-01 11:00 | 41.74503 | -125.14434 | 40171 ft | 475 kts | 329° |
| 2026-05-01 11:01 | 41.80021 | -125.19203 | 40170 ft | 475 kts | 329° |
| 2026-05-01 11:01 | 41.85550 | -125.23993 | 40171 ft | 475 kts | 329° |
| 2026-05-01 11:02 | 41.90861 | -125.28604 | 40171 ft | 475 kts | 329° |
| 2026-05-01 11:02 | 41.96391 | -125.33415 | 40170 ft | 475 kts | 329° |
| 2026-05-01 11:03 | 42.01901 | -125.38219 | 40170 ft | 475 kts | 329° |
| 2026-05-01 11:03 | 42.07399 | -125.43022 | 40170 ft | 475 kts | 329° |
| 2026-05-01 11:04 | 42.12955 | -125.47877 | 40171 ft | 475 kts | 329° |
| 2026-05-01 11:04 | 42.18456 | -125.52679 | 40171 ft | 475 kts | 329° |
| 2026-05-01 11:05 | 42.23999 | -125.57539 | 40171 ft | 475 kts | 329° |
| 2026-05-01 11:05 | 42.29482 | -125.62366 | 40171 ft | 475 kts | 329° |
| 2026-05-01 11:06 | 42.35013 | -125.67256 | 40170 ft | 475 kts | 328° |
| 2026-05-01 11:06 | 42.40493 | -125.72134 | 40170 ft | 475 kts | 328° |
| 2026-05-01 11:07 | 42.48751 | -125.79480 | 40170 ft | 475 kts | 328° |
| 2026-05-01 11:07 | 42.54247 | -125.84373 | 40171 ft | 475 kts | 328° |
| 2026-05-01 11:08 | 42.59741 | -125.89271 | 40171 ft | 475 kts | 328° |
| 2026-05-01 11:09 | 42.68010 | -125.96661 | 40167 ft | 475 kts | 328° |
| 2026-05-01 11:09 | 42.73488 | -126.01572 | 40165 ft | 475 kts | 328° |
| 2026-05-01 11:10 | 42.81715 | -126.08965 | 40163 ft | 475 kts | 328° |
| 2026-05-01 11:10 | 42.87246 | -126.13948 | 40163 ft | 475 kts | 328° |
| 2026-05-01 11:11 | 42.92705 | -126.18868 | 40165 ft | 473 kts | 328° |
| 2026-05-01 11:11 | 42.98166 | -126.23801 | 40164 ft | 469 kts | 327° |
| 2026-05-01 11:12 | 43.03551 | -126.28681 | 40162 ft | 469 kts | 326° |
| 2026-05-01 11:12 | 43.08996 | -126.33640 | 40164 ft | 471 kts | 326° |
| 2026-05-01 11:13 | 43.14453 | -126.38602 | 40162 ft | 472 kts | 326° |
| 2026-05-01 11:13 | 43.19888 | -126.43544 | 40163 ft | 471 kts | 326° |
| 2026-05-01 11:14 | 43.25300 | -126.48491 | 40163 ft | 472 kts | 326° |
| 2026-05-01 11:14 | 43.30769 | -126.53504 | 40163 ft | 472 kts | 326° |
| 2026-05-01 11:15 | 43.36171 | -126.58472 | 40162 ft | 471 kts | 326° |
| 2026-05-01 11:15 | 43.41626 | -126.63466 | 40162 ft | 471 kts | 327° |
| 2026-05-01 11:16 | 43.47298 | -126.67925 | 40163 ft | 472 kts | 332° |
| 2026-05-01 11:16 | 43.53159 | -126.71931 | 40163 ft | 472 kts | 333° |
| 2026-05-01 11:17 | 43.59049 | -126.75900 | 40165 ft | 472 kts | 333° |
| 2026-05-01 11:17 | 43.64916 | -126.79864 | 40168 ft | 472 kts | 333° |
| 2026-05-01 11:18 | 43.70776 | -126.83838 | 40177 ft | 472 kts | 333° |
| 2026-05-01 11:18 | 43.76652 | -126.87833 | 40184 ft | 472 kts | 333° |
| 2026-05-01 11:19 | 43.82541 | -126.91846 | 40188 ft | 472 kts | 333° |
| 2026-05-01 11:19 | 43.88404 | -126.95852 | 40188 ft | 472 kts | 333° |
| 2026-05-01 11:20 | 43.94274 | -126.99869 | 40191 ft | 471 kts | 333° |
| 2026-05-01 11:20 | 44.00108 | -127.03871 | 40190 ft | 470 kts | 333° |
| 2026-05-01 11:21 | 44.05935 | -127.07879 | 40190 ft | 469 kts | 333° |
| 2026-05-01 11:21 | 44.11750 | -127.11884 | 40191 ft | 467 kts | 333° |
| 2026-05-01 11:22 | 44.17544 | -127.15864 | 40190 ft | 465 kts | 333° |
| 2026-05-01 11:22 | 44.23314 | -127.19846 | 40191 ft | 464 kts | 333° |
| 2026-05-01 11:23 | 44.29082 | -127.23842 | 40190 ft | 463 kts | 333° |
| 2026-05-01 11:23 | 44.34793 | -127.27811 | 40190 ft | 463 kts | 333° |
| 2026-05-01 11:24 | 44.40564 | -127.31831 | 40190 ft | 463 kts | 333° |
| 2026-05-01 11:25 | 44.49163 | -127.37839 | 40190 ft | 463 kts | 333° |
| 2026-05-01 11:25 | 44.57754 | -127.43861 | 40189 ft | 463 kts | 333° |
| 2026-05-01 11:26 | 44.66384 | -127.49930 | 40190 ft | 463 kts | 333° |
| 2026-05-01 11:27 | 44.72098 | -127.53961 | 40190 ft | 463 kts | 333° |
| 2026-05-01 11:27 | 44.77813 | -127.58001 | 40190 ft | 463 kts | 333° |
| 2026-05-01 11:28 | 44.83539 | -127.62057 | 40190 ft | 463 kts | 333° |
| 2026-05-01 11:28 | 44.89274 | -127.66132 | 40190 ft | 463 kts | 332° |
| 2026-05-01 11:29 | 44.97846 | -127.72277 | 40190 ft | 463 kts | 332° |
| 2026-05-01 11:30 | 45.06474 | -127.78454 | 40189 ft | 465 kts | 332° |
| 2026-05-01 11:30 | 45.12225 | -127.82571 | 40187 ft | 467 kts | 332° |
| 2026-05-01 11:31 | 45.18003 | -127.86701 | 40190 ft | 468 kts | 332° |
| 2026-05-01 11:31 | 45.23806 | -127.90866 | 40190 ft | 468 kts | 332° |
| 2026-05-01 11:32 | 45.29577 | -127.95026 | 40189 ft | 468 kts | 332° |
| 2026-05-01 11:32 | 45.35332 | -127.99186 | 40188 ft | 468 kts | 332° |
| 2026-05-01 11:33 | 45.41113 | -128.03375 | 40189 ft | 468 kts | 332° |
| 2026-05-01 11:33 | 45.46881 | -128.07565 | 40189 ft | 468 kts | 332° |
| 2026-05-01 11:34 | 45.52636 | -128.11754 | 40189 ft | 468 kts | 332° |
| 2026-05-01 11:34 | 45.58429 | -128.15981 | 40189 ft | 468 kts | 332° |
| 2026-05-01 11:35 | 45.64194 | -128.20200 | 40189 ft | 468 kts | 332° |
| 2026-05-01 11:35 | 45.69951 | -128.24420 | 40185 ft | 468 kts | 332° |
| 2026-05-01 11:36 | 45.75498 | -128.28497 | 40179 ft | 468 kts | 332° |
| 2026-05-01 11:36 | 45.81265 | -128.32744 | 40172 ft | 468 kts | 332° |
| 2026-05-01 11:37 | 45.87013 | -128.36989 | 40167 ft | 468 kts | 332° |
| 2026-05-01 11:37 | 45.92780 | -128.41257 | 40163 ft | 468 kts | 332° |
| 2026-05-01 11:38 | 45.98539 | -128.45528 | 40163 ft | 468 kts | 332° |
| 2026-05-01 11:38 | 46.04325 | -128.49831 | 40162 ft | 468 kts | 332° |
| 2026-05-01 11:39 | 46.10084 | -128.54123 | 40162 ft | 468 kts | 332° |
| 2026-05-01 11:39 | 46.15836 | -128.58398 | 40164 ft | 468 kts | 332° |
| 2026-05-01 11:40 | 46.21586 | -128.62688 | 40164 ft | 468 kts | 332° |
| 2026-05-01 11:40 | 46.27366 | -128.67027 | 40164 ft | 468 kts | 331° |
| 2026-05-01 11:41 | 46.33075 | -128.71350 | 40163 ft | 468 kts | 331° |
| 2026-05-01 11:41 | 46.38832 | -128.75707 | 40168 ft | 468 kts | 331° |
| 2026-05-01 11:42 | 46.44605 | -128.80077 | 40177 ft | 468 kts | 331° |
| 2026-05-01 11:42 | 46.50317 | -128.84407 | 40189 ft | 468 kts | 331° |
| 2026-05-01 11:43 | 46.56071 | -128.88777 | 40199 ft | 468 kts | 331° |
| 2026-05-01 11:43 | 46.61844 | -128.93175 | 40206 ft | 469 kts | 331° |
| 2026-05-01 11:44 | 46.70463 | -128.99759 | 40214 ft | 471 kts | 331° |
| 2026-05-01 11:44 | 46.76249 | -129.04192 | 40215 ft | 472 kts | 331° |
| 2026-05-01 11:45 | 46.82070 | -129.08662 | 40216 ft | 474 kts | 331° |
| 2026-05-01 11:45 | 46.87897 | -129.13148 | 40216 ft | 475 kts | 331° |
| 2026-05-01 11:46 | 46.93686 | -129.17609 | 40218 ft | 473 kts | 331° |
| 2026-05-01 11:46 | 46.99452 | -129.22063 | 40219 ft | 467 kts | 330° |
| 2026-05-01 11:47 | 47.05142 | -129.26474 | 40217 ft | 461 kts | 330° |
| 2026-05-01 11:47 | 47.10784 | -129.30868 | 40216 ft | 459 kts | 330° |
| 2026-05-01 11:48 | 47.16416 | -129.35237 | 40216 ft | 459 kts | 330° |
| 2026-05-01 11:48 | 47.22042 | -129.39618 | 40216 ft | 459 kts | 330° |
| 2026-05-01 11:49 | 47.27649 | -129.44005 | 40216 ft | 459 kts | 330° |
| 2026-05-01 11:49 | 47.33271 | -129.48418 | 40214 ft | 459 kts | 330° |
| 2026-05-01 11:50 | 47.38852 | -129.52809 | 40215 ft | 459 kts | 330° |
| 2026-05-01 11:50 | 47.44463 | -129.57236 | 40216 ft | 459 kts | 330° |
| 2026-05-01 11:51 | 47.50060 | -129.61664 | 40216 ft | 459 kts | 330° |
| 2026-05-01 11:51 | 47.55690 | -129.66130 | 40216 ft | 459 kts | 329° |
| 2026-05-01 11:52 | 47.61267 | -129.70590 | 40217 ft | 459 kts | 329° |
| 2026-05-01 11:52 | 47.66882 | -129.75072 | 40216 ft | 459 kts | 329° |
| 2026-05-01 11:53 | 47.72485 | -129.79544 | 40216 ft | 459 kts | 329° |
| 2026-05-01 11:53 | 47.78068 | -129.84003 | 40216 ft | 459 kts | 329° |
| 2026-05-01 11:54 | 47.83676 | -129.88490 | 40216 ft | 459 kts | 329° |
| 2026-05-01 11:54 | 47.89263 | -129.92967 | 40215 ft | 459 kts | 329° |
| 2026-05-01 11:55 | 47.94892 | -129.97493 | 40216 ft | 459 kts | 329° |
| 2026-05-01 11:55 | 48.00460 | -130.01976 | 40216 ft | 459 kts | 329° |
| 2026-05-01 11:56 | 48.06066 | -130.06503 | 40216 ft | 459 kts | 329° |
| 2026-05-01 11:56 | 48.11650 | -130.11020 | 40216 ft | 459 kts | 329° |
| 2026-05-01 11:57 | 48.16329 | -130.14793 | 40216 ft | 459 kts | 329° |
| 2026-05-01 11:57 | 48.22870 | -130.20106 | 40215 ft | 459 kts | 329° |
| 2026-05-01 11:58 | 48.28429 | -130.24643 | 40215 ft | 459 kts | 329° |
| 2026-05-01 11:59 | 48.36828 | -130.31519 | 40215 ft | 459 kts | 329° |
| 2026-05-01 11:59 | 48.42416 | -130.36108 | 40215 ft | 459 kts | 329° |
| 2026-05-01 12:00 | 48.50753 | -130.42979 | 40216 ft | 459 kts | 329° |
| 2026-05-01 12:01 | 48.59114 | -130.49893 | 40214 ft | 459 kts | 329° |
| 2026-05-01 12:01 | 48.64711 | -130.54538 | 40216 ft | 459 kts | 329° |
| 2026-05-01 12:02 | 48.70265 | -130.59157 | 40216 ft | 459 kts | 329° |
| 2026-05-01 12:02 | 48.75837 | -130.63805 | 40215 ft | 459 kts | 329° |
| 2026-05-01 12:03 | 48.81414 | -130.68484 | 40216 ft | 459 kts | 328° |
| 2026-05-01 12:03 | 48.86969 | -130.73158 | 40215 ft | 459 kts | 329° |
| 2026-05-01 12:04 | 48.92523 | -130.77826 | 40217 ft | 459 kts | 329° |
| 2026-05-01 12:04 | 48.98098 | -130.82527 | 40216 ft | 459 kts | 328° |
| 2026-05-01 12:05 | 49.03657 | -130.87233 | 40216 ft | 458 kts | 328° |
| 2026-05-01 12:05 | 49.11976 | -130.94286 | 40216 ft | 458 kts | 328° |
| 2026-05-01 12:06 | 49.17504 | -130.98962 | 40215 ft | 459 kts | 328° |
| 2026-05-01 12:06 | 49.23081 | -131.03705 | 40214 ft | 461 kts | 328° |
| 2026-05-01 12:07 | 49.28670 | -131.08479 | 40217 ft | 462 kts | 328° |
| 2026-05-01 12:07 | 49.34262 | -131.13272 | 40221 ft | 462 kts | 328° |
| 2026-05-01 12:08 | 49.39846 | -131.18069 | 40228 ft | 462 kts | 328° |
| 2026-05-01 12:08 | 49.45439 | -131.22888 | 40239 ft | 462 kts | 328° |
| 2026-05-01 12:09 | 49.51016 | -131.27705 | 40250 ft | 462 kts | 328° |
| 2026-05-01 12:09 | 49.56621 | -131.32561 | 40262 ft | 462 kts | 328° |
| 2026-05-01 12:10 | 49.64978 | -131.39822 | 40268 ft | 462 kts | 328° |
| 2026-05-01 12:11 | 49.73360 | -131.47134 | 40271 ft | 462 kts | 328° |
| 2026-05-01 12:11 | 49.78925 | -131.52006 | 40272 ft | 463 kts | 328° |
| 2026-05-01 12:12 | 49.84529 | -131.56924 | 40271 ft | 463 kts | 328° |
| 2026-05-01 12:12 | 49.90072 | -131.61803 | 40271 ft | 462 kts | 328° |
| 2026-05-01 12:13 | 49.95645 | -131.66725 | 40273 ft | 462 kts | 327° |
| 2026-05-01 12:13 | 50.01214 | -131.71678 | 40272 ft | 462 kts | 327° |
| 2026-05-01 12:14 | 50.06753 | -131.76657 | 40272 ft | 462 kts | 327° |
| 2026-05-01 12:14 | 50.12304 | -131.81648 | 40272 ft | 462 kts | 327° |
| 2026-05-01 12:15 | 50.17871 | -131.86644 | 40273 ft | 462 kts | 327° |
| 2026-05-01 12:15 | 50.23354 | -131.91753 | 40273 ft | 461 kts | 325° |
| 2026-05-01 12:16 | 50.28764 | -131.97080 | 40272 ft | 461 kts | 325° |
| 2026-05-01 12:16 | 50.34173 | -132.02399 | 40271 ft | 461 kts | 325° |
| 2026-05-01 12:17 | 50.39599 | -132.07735 | 40272 ft | 461 kts | 325° |
| 2026-05-01 12:17 | 50.45029 | -132.13092 | 40271 ft | 461 kts | 325° |
| 2026-05-01 12:18 | 50.50437 | -132.18440 | 40271 ft | 461 kts | 325° |
| 2026-05-01 12:18 | 50.55817 | -132.23776 | 40273 ft | 461 kts | 325° |
| 2026-05-01 12:19 | 50.61223 | -132.29153 | 40272 ft | 461 kts | 325° |
| 2026-05-01 12:19 | 50.66626 | -132.34546 | 40272 ft | 461 kts | 325° |
| 2026-05-01 12:20 | 50.72030 | -132.39951 | 40271 ft | 462 kts | 325° |
| 2026-05-01 12:20 | 50.77423 | -132.45361 | 40271 ft | 462 kts | 325° |
| 2026-05-01 12:21 | 50.82812 | -132.50781 | 40271 ft | 461 kts | 325° |
| 2026-05-01 12:21 | 50.88237 | -132.56256 | 40270 ft | 461 kts | 325° |
| 2026-05-01 12:22 | 50.92696 | -132.60765 | 40272 ft | 460 kts | 325° |
| 2026-05-01 12:22 | 50.98963 | -132.67125 | 40274 ft | 456 kts | 323° |
| 2026-05-01 12:23 | 51.04256 | -132.72534 | 40272 ft | 453 kts | 323° |
| 2026-05-01 12:23 | 51.09520 | -132.77928 | 40272 ft | 452 kts | 323° |
| 2026-05-01 12:24 | 51.14774 | -132.83296 | 40272 ft | 452 kts | 323° |
| 2026-05-01 12:24 | 51.20054 | -132.88702 | 40272 ft | 452 kts | 323° |
| 2026-05-01 12:25 | 51.27958 | -132.96843 | 40272 ft | 452 kts | 323° |
| 2026-05-01 12:26 | 51.33230 | -133.02292 | 40272 ft | 451 kts | 323° |
| 2026-05-01 12:26 | 51.41081 | -133.10439 | 40273 ft | 450 kts | 322° |
| 2026-05-01 12:27 | 51.48931 | -133.18625 | 40272 ft | 449 kts | 322° |
| 2026-05-01 12:28 | 51.56732 | -133.26798 | 40271 ft | 448 kts | 322° |
| 2026-05-01 12:29 | 51.64511 | -133.34978 | 40271 ft | 448 kts | 322° |
| 2026-05-01 12:29 | 51.72316 | -133.43219 | 40271 ft | 449 kts | 322° |
| 2026-05-01 12:30 | 51.80089 | -133.51463 | 40271 ft | 448 kts | 322° |
| 2026-05-01 12:31 | 51.85276 | -133.56984 | 40271 ft | 448 kts | 322° |
| 2026-05-01 12:31 | 51.90461 | -133.62515 | 40271 ft | 448 kts | 322° |
| 2026-05-01 12:32 | 51.95656 | -133.68088 | 40273 ft | 447 kts | 321° |
| 2026-05-01 12:32 | 52.03399 | -133.76425 | 40271 ft | 447 kts | 321° |
| 2026-05-01 12:33 | 52.08552 | -133.81982 | 40271 ft | 447 kts | 322° |
| 2026-05-01 12:33 | 52.13746 | -133.87575 | 40272 ft | 448 kts | 322° |
| 2026-05-01 12:34 | 52.18928 | -133.93158 | 40272 ft | 447 kts | 321° |
| 2026-05-01 12:34 | 52.24089 | -133.98750 | 40272 ft | 448 kts | 321° |
| 2026-05-01 12:35 | 52.29221 | -134.04340 | 40272 ft | 447 kts | 321° |
| 2026-05-01 12:35 | 52.34406 | -134.10002 | 40271 ft | 447 kts | 321° |
| 2026-05-01 12:36 | 52.39545 | -134.15633 | 40273 ft | 448 kts | 321° |
| 2026-05-01 12:36 | 52.44700 | -134.21298 | 40271 ft | 447 kts | 321° |
| 2026-05-01 12:37 | 52.49831 | -134.26950 | 40273 ft | 447 kts | 321° |
| 2026-05-01 12:37 | 52.54987 | -134.32649 | 40273 ft | 448 kts | 321° |
| 2026-05-01 12:38 | 52.60122 | -134.38341 | 40272 ft | 447 kts | 321° |
| 2026-05-01 12:38 | 52.65283 | -134.44078 | 40271 ft | 448 kts | 321° |
| 2026-05-01 12:39 | 52.70416 | -134.49800 | 40272 ft | 448 kts | 321° |
| 2026-05-01 12:39 | 52.75543 | -134.55533 | 40271 ft | 448 kts | 321° |
| 2026-05-01 12:40 | 52.80675 | -134.61287 | 40269 ft | 447 kts | 321° |
| 2026-05-01 12:40 | 52.85823 | -134.67082 | 40272 ft | 448 kts | 321° |
| 2026-05-01 12:41 | 52.90946 | -134.72885 | 40275 ft | 448 kts | 321° |
| 2026-05-01 12:41 | 52.96075 | -134.78693 | 40276 ft | 447 kts | 321° |
| 2026-05-01 12:42 | 53.01181 | -134.84482 | 40283 ft | 447 kts | 320° |
| 2026-05-01 12:42 | 53.06279 | -134.90286 | 40290 ft | 447 kts | 320° |
| 2026-05-01 12:43 | 53.11415 | -134.96141 | 40294 ft | 450 kts | 319° |
| 2026-05-01 12:43 | 53.16569 | -135.02010 | 40296 ft | 453 kts | 319° |
| 2026-05-01 12:44 | 53.21760 | -135.07958 | 40295 ft | 457 kts | 318° |
| 2026-05-01 12:45 | 53.32254 | -135.20064 | 40297 ft | 462 kts | 318° |
| 2026-05-01 12:45 | 53.37551 | -135.26201 | 40299 ft | 462 kts | 318° |
| 2026-05-01 12:46 | 53.42788 | -135.32288 | 40298 ft | 461 kts | 318° |
| 2026-05-01 12:46 | 53.48019 | -135.38386 | 40299 ft | 461 kts | 318° |
| 2026-05-01 12:47 | 53.53285 | -135.44545 | 40299 ft | 461 kts | 318° |
| 2026-05-01 12:47 | 53.58525 | -135.50693 | 40298 ft | 460 kts | 318° |
| 2026-05-01 12:48 | 53.63766 | -135.56860 | 40298 ft | 461 kts | 318° |
| 2026-05-01 12:48 | 53.68980 | -135.63016 | 40298 ft | 462 kts | 318° |
| 2026-05-01 12:49 | 53.74233 | -135.69251 | 40297 ft | 460 kts | 317° |
| 2026-05-01 12:49 | 53.79425 | -135.75438 | 40294 ft | 459 kts | 317° |
| 2026-05-01 12:50 | 53.84631 | -135.81648 | 40293 ft | 460 kts | 317° |
| 2026-05-01 12:50 | 53.89833 | -135.87863 | 40294 ft | 461 kts | 317° |
| 2026-05-01 12:51 | 53.95060 | -135.94125 | 40297 ft | 460 kts | 317° |
| 2026-05-01 12:52 | 54.02573 | -136.04047 | 40296 ft | 453 kts | 311° |
| 2026-05-01 12:52 | 54.09535 | -136.14796 | 40298 ft | 454 kts | 310° |
| 2026-05-01 12:53 | 54.16514 | -136.25588 | 40299 ft | 453 kts | 311° |
| 2026-05-01 12:54 | 54.21162 | -136.32800 | 40299 ft | 454 kts | 311° |
| 2026-05-01 12:54 | 54.28134 | -136.43684 | 40299 ft | 453 kts | 310° |
| 2026-05-01 12:55 | 54.35086 | -136.54601 | 40300 ft | 453 kts | 311° |
| 2026-05-01 12:56 | 54.39692 | -136.61862 | 40298 ft | 453 kts | 310° |
| 2026-05-01 12:56 | 54.44323 | -136.69200 | 40300 ft | 453 kts | 310° |
| 2026-05-01 12:57 | 54.48906 | -136.76495 | 40298 ft | 453 kts | 310° |
| 2026-05-01 12:57 | 54.55794 | -136.87482 | 40297 ft | 451 kts | 310° |
| 2026-05-01 12:58 | 54.60389 | -136.94829 | 40298 ft | 451 kts | 309° |
| 2026-05-01 12:59 | 54.67249 | -137.05847 | 40297 ft | 450 kts | 309° |
| 2026-05-01 12:59 | 54.74065 | -137.16859 | 40298 ft | 450 kts | 309° |
| 2026-05-01 13:00 | 54.80880 | -137.27913 | 40297 ft | 450 kts | 309° |
| 2026-05-01 13:01 | 54.87690 | -137.39014 | 40298 ft | 449 kts | 309° |
| 2026-05-01 13:02 | 54.94500 | -137.50180 | 40298 ft | 449 kts | 310° |
| 2026-05-01 13:07 | 55.44219 | -138.33217 | 40298 ft | 451 kts | 310° |
| 2026-05-01 13:08 | 55.48702 | -138.40861 | 40298 ft | 451 kts | 310° |
| 2026-05-01 13:08 | 55.53210 | -138.48573 | 40297 ft | 450 kts | 310° |
| 2026-05-01 13:09 | 55.57673 | -138.56233 | 40298 ft | 452 kts | 310° |
| 2026-05-01 13:09 | 55.62174 | -138.63991 | 40296 ft | 451 kts | 310° |
| 2026-05-01 13:10 | 55.66074 | -138.70744 | 40302 ft | 451 kts | 309° |
| 2026-05-01 13:11 | 55.74253 | -138.84994 | 40306 ft | 452 kts | 309° |
| 2026-05-01 13:11 | 55.78686 | -138.92750 | 40304 ft | 450 kts | 309° |
| 2026-05-01 13:12 | 55.83137 | -139.00548 | 40301 ft | 451 kts | 309° |
| 2026-05-01 13:12 | 55.87615 | -139.08414 | 40296 ft | 454 kts | 309° |
| 2026-05-01 13:13 | 55.92088 | -139.16292 | 40293 ft | 455 kts | 308° |
| 2026-05-01 13:13 | 55.96572 | -139.24223 | 40290 ft | 457 kts | 308° |
| 2026-05-01 13:14 | 56.01062 | -139.32187 | 40289 ft | 457 kts | 308° |
| 2026-05-01 13:14 | 56.05544 | -139.40163 | 40293 ft | 457 kts | 308° |
| 2026-05-01 13:15 | 56.10022 | -139.48164 | 40291 ft | 457 kts | 308° |
| 2026-05-01 13:15 | 56.14531 | -139.56189 | 40288 ft | 457 kts | 308° |
| 2026-05-01 13:16 | 56.19020 | -139.64218 | 40291 ft | 458 kts | 308° |
| 2026-05-01 13:16 | 56.23479 | -139.72270 | 40292 ft | 456 kts | 308° |
| 2026-05-01 13:17 | 56.32374 | -139.88428 | 40288 ft | 456 kts | 307° |
| 2026-05-01 13:18 | 56.39021 | -140.00569 | 40290 ft | 456 kts | 308° |
| 2026-05-01 13:18 | 56.43465 | -140.08716 | 40289 ft | 456 kts | 308° |
| 2026-05-01 13:19 | 56.47884 | -140.16855 | 40291 ft | 456 kts | 308° |
| 2026-05-01 13:20 | 56.54523 | -140.29128 | 40292 ft | 456 kts | 308° |
| 2026-05-01 13:20 | 56.58958 | -140.37364 | 40289 ft | 456 kts | 308° |
| 2026-05-01 13:21 | 56.65560 | -140.49680 | 40287 ft | 455 kts | 308° |
| 2026-05-01 13:21 | 56.69953 | -140.57910 | 40289 ft | 456 kts | 307° |
| 2026-05-01 13:22 | 56.74364 | -140.66205 | 40292 ft | 456 kts | 307° |
| 2026-05-01 13:22 | 56.78734 | -140.74480 | 40290 ft | 455 kts | 307° |
| 2026-05-01 13:23 | 56.83096 | -140.82762 | 40290 ft | 455 kts | 307° |
| 2026-05-01 13:23 | 56.87473 | -140.91089 | 40292 ft | 455 kts | 307° |
| 2026-05-01 13:24 | 56.91857 | -140.99443 | 40290 ft | 458 kts | 306° |
| 2026-05-01 13:25 | 56.98455 | -141.12087 | 40290 ft | 460 kts | 306° |
| 2026-05-01 13:25 | 57.02835 | -141.20503 | 40292 ft | 457 kts | 306° |
| 2026-05-01 13:26 | 57.07184 | -141.28896 | 40292 ft | 451 kts | 305° |
| 2026-05-01 13:26 | 57.11484 | -141.37224 | 40292 ft | 446 kts | 304° |
| 2026-05-01 13:27 | 57.15705 | -141.45380 | 40292 ft | 442 kts | 304° |
| 2026-05-01 13:27 | 57.22036 | -141.57724 | 40292 ft | 441 kts | 304° |
| 2026-05-01 13:28 | 57.28298 | -141.70036 | 40293 ft | 441 kts | 303° |
| 2026-05-01 13:29 | 57.36654 | -141.86597 | 40291 ft | 441 kts | 303° |
| 2026-05-01 13:31 | 57.49124 | -142.11485 | 40291 ft | 441 kts | 303° |
| 2026-05-01 13:32 | 57.59477 | -142.32349 | 40290 ft | 441 kts | 303° |
| 2026-05-01 13:33 | 57.69791 | -142.53323 | 40291 ft | 441 kts | 303° |
| 2026-05-01 13:34 | 57.78027 | -142.70221 | 40293 ft | 440 kts | 303° |
| 2026-05-01 13:35 | 57.84159 | -142.82898 | 40291 ft | 440 kts | 302° |
| 2026-05-01 13:36 | 57.90274 | -142.95586 | 40279 ft | 442 kts | 302° |
| 2026-05-01 13:36 | 57.96444 | -143.08461 | 40245 ft | 445 kts | 302° |
| 2026-05-01 13:37 | 57.99886 | -143.15675 | 40229 ft | 446 kts | 302° |
| 2026-05-01 13:37 | 58.04705 | -143.25810 | 40216 ft | 447 kts | 302° |
| 2026-05-01 13:38 | 58.10880 | -143.38856 | 40198 ft | 446 kts | 302° |
| 2026-05-01 13:39 | 58.15017 | -143.47569 | 40180 ft | 446 kts | 302° |
| 2026-05-01 13:39 | 58.19134 | -143.56302 | 40164 ft | 447 kts | 302° |
| 2026-05-01 13:40 | 58.23230 | -143.65047 | 40155 ft | 446 kts | 301° |
| 2026-05-01 13:40 | 58.27332 | -143.73866 | 40143 ft | 445 kts | 301° |
| 2026-05-01 13:41 | 58.31410 | -143.82672 | 40127 ft | 445 kts | 301° |
| 2026-05-01 13:41 | 58.35485 | -143.91496 | 40119 ft | 445 kts | 301° |
| 2026-05-01 13:42 | 58.39553 | -144.00337 | 40110 ft | 445 kts | 301° |
| 2026-05-01 13:42 | 58.43599 | -144.09160 | 40095 ft | 445 kts | 301° |
| 2026-05-01 13:43 | 58.47665 | -144.18060 | 40091 ft | 445 kts | 301° |
| 2026-05-01 13:43 | 58.51822 | -144.26845 | 40087 ft | 449 kts | 304° |
| 2026-05-01 13:44 | 58.56193 | -144.35373 | 40078 ft | 450 kts | 304° |
| 2026-05-01 13:44 | 58.60577 | -144.43970 | 40076 ft | 450 kts | 304° |
| 2026-05-01 13:45 | 58.64888 | -144.52510 | 40074 ft | 449 kts | 304° |
| 2026-05-01 13:45 | 58.69247 | -144.61185 | 40072 ft | 450 kts | 304° |
| 2026-05-01 13:46 | 58.73689 | -144.69617 | 40071 ft | 452 kts | 305° |
| 2026-05-01 13:46 | 58.78224 | -144.77968 | 40070 ft | 453 kts | 306° |
| 2026-05-01 13:47 | 58.82771 | -144.86285 | 40070 ft | 453 kts | 306° |
| 2026-05-01 13:47 | 58.87331 | -144.94659 | 40069 ft | 452 kts | 306° |
| 2026-05-01 13:48 | 58.91861 | -145.03008 | 40070 ft | 453 kts | 305° |
| 2026-05-01 13:48 | 58.96440 | -145.11476 | 40069 ft | 454 kts | 305° |
| 2026-05-01 13:49 | 59.00988 | -145.19934 | 40068 ft | 456 kts | 305° |
| 2026-05-01 13:49 | 59.05545 | -145.28444 | 40070 ft | 456 kts | 305° |
| 2026-05-01 13:50 | 59.10081 | -145.36938 | 40069 ft | 456 kts | 305° |
| 2026-05-01 13:50 | 59.14595 | -145.45371 | 40069 ft | 457 kts | 305° |
| 2026-05-01 13:51 | 59.19177 | -145.53970 | 40070 ft | 456 kts | 305° |
| 2026-05-01 13:51 | 59.23682 | -145.62483 | 40070 ft | 456 kts | 305° |
| 2026-05-01 13:52 | 59.28209 | -145.71103 | 40071 ft | 455 kts | 304° |
| 2026-05-01 13:52 | 59.32733 | -145.79762 | 40070 ft | 455 kts | 304° |
| 2026-05-01 13:53 | 59.37233 | -145.88399 | 40069 ft | 455 kts | 304° |
| 2026-05-01 13:53 | 59.43924 | -146.01292 | 40070 ft | 455 kts | 304° |
| 2026-05-01 13:54 | 59.48441 | -146.10042 | 40070 ft | 456 kts | 304° |
| 2026-05-01 13:54 | 59.52914 | -146.18736 | 40070 ft | 455 kts | 304° |
| 2026-05-01 13:55 | 59.57352 | -146.27440 | 40069 ft | 456 kts | 304° |
| 2026-05-01 13:55 | 59.61829 | -146.36215 | 39948 ft | 456 kts | 304° |
| 2026-05-01 13:56 | 59.64034 | -146.40541 | 39700 ft | 454 kts | 304° |
| 2026-05-01 13:56 | 59.66252 | -146.44897 | 39451 ft | 451 kts | 304° |
| 2026-05-01 13:56 | 59.68456 | -146.49237 | 39202 ft | 448 kts | 304° |
| 2026-05-01 13:56 | 59.70595 | -146.53456 | 38958 ft | 445 kts | 304° |
| 2026-05-01 13:57 | 59.72772 | -146.57767 | 38709 ft | 444 kts | 304° |
| 2026-05-01 13:57 | 59.74238 | -146.60677 | 38540 ft | 444 kts | 304° |
| 2026-05-01 13:57 | 59.77115 | -146.66400 | 38213 ft | 444 kts | 303° |
| 2026-05-01 13:57 | 59.79274 | -146.70714 | 37964 ft | 443 kts | 303° |
| 2026-05-01 13:58 | 59.81444 | -146.75056 | 37713 ft | 443 kts | 303° |
| 2026-05-01 13:58 | 59.83597 | -146.79373 | 37407 ft | 443 kts | 303° |
| 2026-05-01 13:58 | 59.85765 | -146.83725 | 37031 ft | 443 kts | 303° |
| 2026-05-01 13:58 | 59.87909 | -146.88032 | 36530 ft | 443 kts | 303° |
| 2026-05-01 13:59 | 59.89961 | -146.92165 | 35914 ft | 445 kts | 303° |
| 2026-05-01 13:59 | 59.92123 | -146.96529 | 35150 ft | 448 kts | 303° |
| 2026-05-01 13:59 | 59.94296 | -147.00929 | 34313 ft | 453 kts | 303° |
| 2026-05-01 13:59 | 59.96526 | -147.05453 | 33421 ft | 459 kts | 303° |
| 2026-05-01 14:00 | 59.98742 | -147.09961 | 32518 ft | 466 kts | 303° |
| 2026-05-01 14:00 | 60.01012 | -147.14578 | 31668 ft | 464 kts | 304° |
| 2026-05-01 14:00 | 60.03270 | -147.19165 | 31046 ft | 467 kts | 304° |
| 2026-05-01 14:00 | 60.05538 | -147.23807 | 30405 ft | 482 kts | 304° |
| 2026-05-01 14:01 | 60.07933 | -147.28744 | 29731 ft | 505 kts | 305° |
| 2026-05-01 14:01 | 60.10287 | -147.33601 | 29073 ft | 516 kts | 306° |
| 2026-05-01 14:01 | 60.12803 | -147.38724 | 28398 ft | 512 kts | 307° |
| 2026-05-01 14:01 | 60.15287 | -147.43782 | 27749 ft | 523 kts | 307° |
| 2026-05-01 14:02 | 60.17772 | -147.48866 | 27601 ft | 522 kts | 307° |
| 2026-05-01 14:02 | 60.20208 | -147.53838 | 27307 ft | 507 kts | 307° |
| 2026-05-01 14:02 | 60.22670 | -147.58882 | 26425 ft | 496 kts | 307° |
| 2026-05-01 14:02 | 60.25020 | -147.63745 | 25126 ft | 486 kts | 308° |
| 2026-05-01 14:03 | 60.27184 | -147.68256 | 23977 ft | 472 kts | 307° |
| 2026-05-01 14:03 | 60.29458 | -147.73019 | 23476 ft | 468 kts | 308° |
| 2026-05-01 14:03 | 60.31459 | -147.77222 | 23176 ft | 467 kts | 308° |
| 2026-05-01 14:03 | 60.33839 | -147.82216 | 22667 ft | 463 kts | 308° |
| 2026-05-01 14:04 | 60.36060 | -147.86887 | 22121 ft | 460 kts | 308° |
| 2026-05-01 14:04 | 60.38216 | -147.91426 | 21559 ft | 459 kts | 309° |
| 2026-05-01 14:04 | 60.40414 | -147.96066 | 20973 ft | 457 kts | 309° |
| 2026-05-01 14:04 | 60.41856 | -147.99110 | 20586 ft | 456 kts | 309° |
| 2026-05-01 14:05 | 60.44767 | -148.05272 | 19797 ft | 454 kts | 310° |
| 2026-05-01 14:05 | 60.46782 | -148.09543 | 19248 ft | 452 kts | 310° |
| 2026-05-01 14:05 | 60.48977 | -148.14208 | 18643 ft | 449 kts | 310° |
| 2026-05-01 14:05 | 60.51107 | -148.18741 | 18057 ft | 447 kts | 311° |
| 2026-05-01 14:06 | 60.53258 | -148.23328 | 17461 ft | 444 kts | 311° |
| 2026-05-01 14:06 | 60.55356 | -148.27812 | 16876 ft | 442 kts | 311° |
| 2026-05-01 14:06 | 60.57468 | -148.32333 | 16336 ft | 437 kts | 312° |
| 2026-05-01 14:06 | 60.59522 | -148.36740 | 15877 ft | 431 kts | 312° |
| 2026-05-01 14:07 | 60.61560 | -148.41118 | 15446 ft | 425 kts | 312° |
| 2026-05-01 14:07 | 60.63569 | -148.45444 | 15028 ft | 419 kts | 313° |
| 2026-05-01 14:07 | 60.65432 | -148.49463 | 14644 ft | 413 kts | 313° |
| 2026-05-01 14:08 | 60.69208 | -148.57634 | 13857 ft | 403 kts | 313° |
| 2026-05-01 14:08 | 60.71086 | -148.61710 | 13456 ft | 398 kts | 313° |
| 2026-05-01 14:08 | 60.72890 | -148.65631 | 13075 ft | 393 kts | 312° |
| 2026-05-01 14:08 | 60.74736 | -148.69659 | 12684 ft | 388 kts | 312° |
| 2026-05-01 14:09 | 60.76551 | -148.73634 | 12293 ft | 383 kts | 312° |
| 2026-05-01 14:09 | 60.78363 | -148.77603 | 11900 ft | 379 kts | 313° |
| 2026-05-01 14:09 | 60.80133 | -148.81483 | 11492 ft | 376 kts | 313° |
| 2026-05-01 14:09 | 60.81915 | -148.85393 | 11048 ft | 373 kts | 313° |
| 2026-05-01 14:10 | 60.83655 | -148.89215 | 10708 ft | 367 kts | 312° |
| 2026-05-01 14:10 | 60.85372 | -148.92990 | 10558 ft | 355 kts | 312° |
| 2026-05-01 14:10 | 60.87003 | -148.96585 | 10424 ft | 344 kts | 312° |
| 2026-05-01 14:10 | 60.88553 | -149.00005 | 10308 ft | 333 kts | 312° |
| 2026-05-01 14:11 | 60.90055 | -149.03328 | 10208 ft | 322 kts | 312° |
| 2026-05-01 14:11 | 60.92923 | -149.09689 | 10033 ft | 307 kts | 313° |
| 2026-05-01 14:11 | 60.94311 | -149.12778 | 9917 ft | 309 kts | 313° |
| 2026-05-01 14:12 | 60.95758 | -149.16005 | 9581 ft | 309 kts | 314° |
| 2026-05-01 14:12 | 60.97205 | -149.19223 | 9298 ft | 306 kts | 314° |
| 2026-05-01 14:12 | 60.98523 | -149.22157 | 9055 ft | 303 kts | 314° |
| 2026-05-01 14:12 | 60.99210 | -149.23688 | 8930 ft | 301 kts | 314° |
| 2026-05-01 14:13 | 61.00614 | -149.26837 | 8700 ft | 296 kts | 315° |
| 2026-05-01 14:13 | 61.01232 | -149.28200 | 8621 ft | 293 kts | 311° |
| 2026-05-01 14:13 | 61.03062 | -149.32211 | 8347 ft | 286 kts | 310° |
| 2026-05-01 14:13 | 61.04379 | -149.35178 | 8127 ft | 282 kts | 310° |
| 2026-05-01 14:14 | 61.05683 | -149.38129 | 7998 ft | 283 kts | 309° |
| 2026-05-01 14:14 | 61.06991 | -149.41087 | 7863 ft | 280 kts | 310° |
| 2026-05-01 14:14 | 61.08293 | -149.44102 | 7946 ft | 284 kts | 315° |
| 2026-05-01 14:14 | 61.09615 | -149.47128 | 7972 ft | 285 kts | 316° |
| 2026-05-01 14:15 | 61.10943 | -149.50093 | 7983 ft | 286 kts | 317° |
| 2026-05-01 14:15 | 61.12411 | -149.52757 | 7986 ft | 285 kts | 326° |
| 2026-05-01 14:15 | 61.13948 | -149.55104 | 7984 ft | 283 kts | 328° |
| 2026-05-01 14:15 | 61.15490 | -149.57385 | 7777 ft | 280 kts | 328° |
| 2026-05-01 14:16 | 61.17078 | -149.59726 | 7451 ft | 280 kts | 328° |
| 2026-05-01 14:16 | 61.18653 | -149.62039 | 7166 ft | 277 kts | 330° |
| 2026-05-01 14:16 | 61.20137 | -149.63856 | 6907 ft | 274 kts | 335° |
| 2026-05-01 14:16 | 61.21808 | -149.65649 | 6608 ft | 272 kts | 336° |
| 2026-05-01 14:17 | 61.23307 | -149.67213 | 6326 ft | 271 kts | 336° |
| 2026-05-01 14:17 | 61.24999 | -149.68962 | 6003 ft | 271 kts | 336° |
| 2026-05-01 14:17 | 61.26694 | -149.70697 | 5674 ft | 271 kts | 336° |
| 2026-05-01 14:17 | 61.28385 | -149.72400 | 5325 ft | 272 kts | 336° |
| 2026-05-01 14:18 | 61.30066 | -149.74074 | 5020 ft | 272 kts | 336° |
| 2026-05-01 14:18 | 61.31768 | -149.75758 | 4727 ft | 270 kts | 336° |
| 2026-05-01 14:18 | 61.33483 | -149.77444 | 4432 ft | 269 kts | 336° |
| 2026-05-01 14:18 | 61.34601 | -149.78537 | 4236 ft | 269 kts | 336° |
| 2026-05-01 14:19 | 61.36830 | -149.80748 | 3980 ft | 263 kts | 331° |
| 2026-05-01 14:19 | 61.38322 | -149.82703 | 3979 ft | 251 kts | 326° |
| 2026-05-01 14:19 | 61.39648 | -149.84810 | 3975 ft | 238 kts | 319° |
| 2026-05-01 14:19 | 61.40773 | -149.86931 | 3973 ft | 226 kts | 313° |
| 2026-05-01 14:20 | 61.41743 | -149.89166 | 3974 ft | 214 kts | 308° |
| 2026-05-01 14:20 | 61.43571 | -149.93751 | 3989 ft | 224 kts | 307° |
| 2026-05-01 14:20 | 61.44535 | -149.96343 | 3979 ft | 226 kts | 295° |
| 2026-05-01 14:21 | 61.44808 | -149.99454 | 3797 ft | 216 kts | 255° |
| 2026-05-01 14:21 | 61.44081 | -150.02083 | 3619 ft | 208 kts | 221° |
| 2026-05-01 14:21 | 61.43021 | -150.03722 | 3573 ft | 210 kts | 214° |
| 2026-05-01 14:22 | 61.40614 | -150.07198 | 3404 ft | 211 kts | 216° |
| 2026-05-01 14:22 | 61.39464 | -150.08954 | 3231 ft | 207 kts | 217° |
| 2026-05-01 14:22 | 61.38330 | -150.10727 | 3048 ft | 204 kts | 216° |
| 2026-05-01 14:22 | 61.37101 | -150.11855 | 3007 ft | 194 kts | 185° |
| 2026-05-01 14:23 | 61.35889 | -150.11363 | 3019 ft | 178 kts | 162° |
| 2026-05-01 14:23 | 61.34898 | -150.10516 | 2990 ft | 161 kts | 160° |
| 2026-05-01 14:23 | 61.33905 | -150.09660 | 2982 ft | 145 kts | 161° |
| 2026-05-01 14:23 | 61.32975 | -150.08934 | 2955 ft | 145 kts | 163° |
| 2026-05-01 14:24 | 61.32019 | -150.08254 | 2745 ft | 144 kts | 165° |
| 2026-05-01 14:24 | 61.31068 | -150.07651 | 2543 ft | 143 kts | 167° |
| 2026-05-01 14:24 | 61.30125 | -150.07100 | 2345 ft | 143 kts | 167° |
| 2026-05-01 14:24 | 61.29161 | -150.06560 | 2144 ft | 143 kts | 168° |
| 2026-05-01 14:25 | 61.28196 | -150.06026 | 1942 ft | 143 kts | 168° |
| 2026-05-01 14:25 | 61.27266 | -150.05513 | 1747 ft | 143 kts | 168° |
| 2026-05-01 14:25 | 61.26304 | -150.04979 | 1546 ft | 143 kts | 167° |
| 2026-05-01 14:25 | 61.25431 | -150.04495 | 1365 ft | 144 kts | 167° |
| 2026-05-01 14:26 | 61.24480 | -150.03964 | 1161 ft | 145 kts | 167° |
| 2026-05-01 14:26 | 61.22655 | -150.02936 | 749 ft | 144 kts | 167° |
| 2026-05-01 14:26 | 61.21771 | -150.02426 | 576 ft | 144 kts | 166° |
| 2026-05-01 14:27 | 61.20889 | -150.01918 | 397 ft | 145 kts | 167° |
| 2026-05-01 14:27 | 61.20064 | -150.01482 | 200 ft | 144 kts | 168° |
| 2026-05-01 14:28 | 61.18400 | -150.00589 | 165 ft | 27 kts | 161° |
| 2026-05-01 14:28 | 61.18257 | -150.00499 | 165 ft | 25 kts | 168° |
| 2026-05-01 14:28 | 61.18036 | -150.00371 | 165 ft | 38 kts | 164° |
| 2026-05-01 14:28 | 61.17847 | -150.00128 | 165 ft | 25 kts | 136° |
| 2026-05-01 14:29 | 61.17789 | -150.00012 | 165 ft | 0 kts | 136° |
| 2026-05-01 14:30 | 61.17721 | -149.99880 | 165 ft | 13 kts | 141° |
| 2026-05-01 14:30 | 61.17663 | -149.99712 | 165 ft | 14 kts | 78° |
| 2026-05-01 14:30 | 61.17726 | -149.99570 | 165 ft | 12 kts | 6° |
| 2026-05-01 14:31 | 61.17857 | -149.99478 | 165 ft | 3 kts | 73° |
| 2026-05-01 14:31 | 61.17862 | -149.99445 | 165 ft | 0 kts | 73° |